sensor_id;sensor_type;location;lat;lon;timestamp;P1;durP1;ratioP1;P2;durP2;ratioP2
68806;SDS011;55800;54.272;18.558;2022-10-16T00:00:14;92.95;;;43.08;;
68806;SDS011;55800;54.272;18.558;2022-10-16T00:03:06;95.65;;;47.08;;
68806;SDS011;55800;54.272;18.558;2022-10-16T00:05:38;81.15;;;41.03;;
68806;SDS011;55800;54.272;18.558;2022-10-16T00:08:09;85.95;;;40.83;;
68806;SDS011;55800;54.272;18.558;2022-10-16T00:10:39;92.93;;;45.80;;
68806;SDS011;55800;54.272;18.558;2022-10-16T00:15:37;91.43;;;41.25;;
68806;SDS011;55800;54.272;18.558;2022-10-16T00:18:08;92.22;;;43.70;;
68806;SDS011;55800;54.272;18.558;2022-10-16T00:20:38;98.45;;;43.25;;
68806;SDS011;55800;54.272;18.558;2022-10-16T00:25:37;90.82;;;42.33;;
68806;SDS011;55800;54.272;18.558;2022-10-16T00:30:37;90.63;;;39.30;;
68806;SDS011;55800;54.272;18.558;2022-10-16T00:33:08;103.90;;;44.63;;
68806;SDS011;55800;54.272;18.558;2022-10-16T00:35:37;112.45;;;47.42;;
68806;SDS011;55800;54.272;18.558;2022-10-16T00:38:07;108.57;;;46.75;;
68806;SDS011;55800;54.272;18.558;2022-10-16T00:40:36;104.97;;;46.15;;
68806;SDS011;55800;54.272;18.558;2022-10-16T00:45:39;106.95;;;41.00;;
68806;SDS011;55800;54.272;18.558;2022-10-16T00:48:12;124.00;;;47.65;;
68806;SDS011;55800;54.272;18.558;2022-10-16T00:50:42;131.48;;;50.40;;
68806;SDS011;55800;54.272;18.558;2022-10-16T00:53:11;149.57;;;56.75;;
68806;SDS011;55800;54.272;18.558;2022-10-16T00:55:42;154.18;;;54.65;;
68806;SDS011;55800;54.272;18.558;2022-10-16T00:58:12;170.50;;;55.00;;
68806;SDS011;55800;54.272;18.558;2022-10-16T01:00:42;167.65;;;56.42;;
68806;SDS011;55800;54.272;18.558;2022-10-16T01:05:59;145.90;;;52.50;;
68806;SDS011;55800;54.272;18.558;2022-10-16T01:08:44;146.27;;;53.22;;
68806;SDS011;55800;54.272;18.558;2022-10-16T01:11:25;141.05;;;52.60;;
68806;SDS011;55800;54.272;18.558;2022-10-16T01:14:02;161.80;;;54.88;;
68806;SDS011;55800;54.272;18.558;2022-10-16T01:16:39;156.45;;;54.95;;
68806;SDS011;55800;54.272;18.558;2022-10-16T01:19:15;166.75;;;50.67;;
68806;SDS011;55800;54.272;18.558;2022-10-16T01:21:48;160.90;;;55.20;;
68806;SDS011;55800;54.272;18.558;2022-10-16T01:24:24;160.07;;;55.80;;
68806;SDS011;55800;54.272;18.558;2022-10-16T01:27:09;154.60;;;52.90;;
68806;SDS011;55800;54.272;18.558;2022-10-16T01:29:46;149.82;;;51.95;;
68806;SDS011;55800;54.272;18.558;2022-10-16T01:34:53;133.50;;;45.45;;
68806;SDS011;55800;54.272;18.558;2022-10-16T01:37:30;155.15;;;48.83;;
68806;SDS011;55800;54.272;18.558;2022-10-16T01:40:05;157.38;;;51.75;;
68806;SDS011;55800;54.272;18.558;2022-10-16T01:42:40;156.68;;;53.05;;
68806;SDS011;55800;54.272;18.558;2022-10-16T01:45:12;151.85;;;50.85;;
68806;SDS011;55800;54.272;18.558;2022-10-16T01:47:46;131.23;;;47.67;;
68806;SDS011;55800;54.272;18.558;2022-10-16T01:50:18;146.05;;;49.33;;
68806;SDS011;55800;54.272;18.558;2022-10-16T01:52:50;133.40;;;48.13;;
68806;SDS011;55800;54.272;18.558;2022-10-16T01:55:24;123.78;;;45.33;;
68806;SDS011;55800;54.272;18.558;2022-10-16T01:57:58;101.28;;;38.03;;
68806;SDS011;55800;54.272;18.558;2022-10-16T02:00:32;106.00;;;40.20;;
68806;SDS011;55800;54.272;18.558;2022-10-16T02:03:01;112.85;;;40.58;;
68806;SDS011;55800;54.272;18.558;2022-10-16T02:05:34;103.32;;;39.33;;
68806;SDS011;55800;54.272;18.558;2022-10-16T02:08:08;109.07;;;39.55;;
68806;SDS011;55800;54.272;18.558;2022-10-16T02:10:38;89.78;;;38.97;;
68806;SDS011;55800;54.272;18.558;2022-10-16T02:13:10;81.40;;;33.30;;
68806;SDS011;55800;54.272;18.558;2022-10-16T02:15:44;70.47;;;31.73;;
68806;SDS011;55800;54.272;18.558;2022-10-16T02:18:13;60.83;;;29.63;;
68806;SDS011;55800;54.272;18.558;2022-10-16T02:20:44;56.10;;;27.80;;
68806;SDS011;55800;54.272;18.558;2022-10-16T02:23:19;47.20;;;27.05;;
68806;SDS011;55800;54.272;18.558;2022-10-16T02:25:52;49.28;;;24.38;;
68806;SDS011;55800;54.272;18.558;2022-10-16T02:28:26;45.50;;;23.25;;
68806;SDS011;55800;54.272;18.558;2022-10-16T02:31:18;42.57;;;23.43;;
68806;SDS011;55800;54.272;18.558;2022-10-16T02:33:53;37.72;;;20.25;;
68806;SDS011;55800;54.272;18.558;2022-10-16T02:36:26;39.40;;;20.25;;
68806;SDS011;55800;54.272;18.558;2022-10-16T02:38:57;37.40;;;21.88;;
68806;SDS011;55800;54.272;18.558;2022-10-16T02:41:28;37.70;;;21.75;;
68806;SDS011;55800;54.272;18.558;2022-10-16T02:43:59;40.28;;;20.38;;
68806;SDS011;55800;54.272;18.558;2022-10-16T02:46:29;42.88;;;21.55;;
68806;SDS011;55800;54.272;18.558;2022-10-16T02:48:58;40.03;;;21.90;;
68806;SDS011;55800;54.272;18.558;2022-10-16T02:51:27;39.35;;;21.67;;
68806;SDS011;55800;54.272;18.558;2022-10-16T02:53:56;35.53;;;18.95;;
68806;SDS011;55800;54.272;18.558;2022-10-16T02:56:26;32.97;;;19.63;;
68806;SDS011;55800;54.272;18.558;2022-10-16T02:58:56;39.88;;;20.65;;
68806;SDS011;55800;54.272;18.558;2022-10-16T03:01:27;38.78;;;19.13;;
68806;SDS011;55800;54.272;18.558;2022-10-16T03:03:56;35.33;;;19.30;;
68806;SDS011;55800;54.272;18.558;2022-10-16T03:06:26;35.08;;;20.73;;
68806;SDS011;55800;54.272;18.558;2022-10-16T03:08:55;35.17;;;19.92;;
68806;SDS011;55800;54.272;18.558;2022-10-16T03:13:54;35.15;;;20.20;;
68806;SDS011;55800;54.272;18.558;2022-10-16T03:16:24;40.97;;;21.30;;
68806;SDS011;55800;54.272;18.558;2022-10-16T03:18:54;37.17;;;19.17;;
68806;SDS011;55800;54.272;18.558;2022-10-16T03:21:24;33.95;;;18.50;;
68806;SDS011;55800;54.272;18.558;2022-10-16T03:23:53;35.70;;;19.55;;
68806;SDS011;55800;54.272;18.558;2022-10-16T03:28:51;43.53;;;23.42;;
68806;SDS011;55800;54.272;18.558;2022-10-16T03:31:21;39.75;;;21.92;;
68806;SDS011;55800;54.272;18.558;2022-10-16T03:33:51;40.83;;;22.05;;
68806;SDS011;55800;54.272;18.558;2022-10-16T03:36:20;45.03;;;23.58;;
68806;SDS011;55800;54.272;18.558;2022-10-16T03:41:19;43.45;;;21.92;;
68806;SDS011;55800;54.272;18.558;2022-10-16T03:43:48;45.13;;;23.80;;
68806;SDS011;55800;54.272;18.558;2022-10-16T03:46:17;49.17;;;24.48;;
68806;SDS011;55800;54.272;18.558;2022-10-16T03:48:47;43.47;;;24.33;;
68806;SDS011;55800;54.272;18.558;2022-10-16T03:53:46;41.13;;;20.95;;
68806;SDS011;55800;54.272;18.558;2022-10-16T03:58:45;42.65;;;20.48;;
68806;SDS011;55800;54.272;18.558;2022-10-16T04:01:14;41.17;;;22.85;;
68806;SDS011;55800;54.272;18.558;2022-10-16T04:06:13;40.47;;;20.83;;
68806;SDS011;55800;54.272;18.558;2022-10-16T04:08:43;42.83;;;22.00;;
68806;SDS011;55800;54.272;18.558;2022-10-16T04:11:13;35.78;;;20.83;;
68806;SDS011;55800;54.272;18.558;2022-10-16T04:13:42;40.45;;;21.27;;
68806;SDS011;55800;54.272;18.558;2022-10-16T04:16:12;38.63;;;20.42;;
68806;SDS011;55800;54.272;18.558;2022-10-16T04:18:41;39.35;;;22.02;;
68806;SDS011;55800;54.272;18.558;2022-10-16T04:23:40;36.72;;;21.58;;
68806;SDS011;55800;54.272;18.558;2022-10-16T04:26:11;41.53;;;22.15;;
68806;SDS011;55800;54.272;18.558;2022-10-16T04:28:40;37.33;;;20.40;;
68806;SDS011;55800;54.272;18.558;2022-10-16T04:31:10;40.70;;;22.08;;
68806;SDS011;55800;54.272;18.558;2022-10-16T04:33:41;36.53;;;19.95;;
68806;SDS011;55800;54.272;18.558;2022-10-16T04:36:11;38.15;;;20.67;;
68806;SDS011;55800;54.272;18.558;2022-10-16T04:41:11;38.45;;;20.33;;
68806;SDS011;55800;54.272;18.558;2022-10-16T04:43:40;45.47;;;22.75;;
68806;SDS011;55800;54.272;18.558;2022-10-16T04:46:09;50.10;;;26.02;;
68806;SDS011;55800;54.272;18.558;2022-10-16T04:48:39;53.75;;;27.42;;
68806;SDS011;55800;54.272;18.558;2022-10-16T04:51:08;53.78;;;27.00;;
68806;SDS011;55800;54.272;18.558;2022-10-16T04:56:06;61.10;;;25.77;;
68806;SDS011;55800;54.272;18.558;2022-10-16T04:58:37;57.75;;;29.08;;
68806;SDS011;55800;54.272;18.558;2022-10-16T05:01:06;58.20;;;29.40;;
68806;SDS011;55800;54.272;18.558;2022-10-16T05:03:36;63.88;;;29.70;;
68806;SDS011;55800;54.272;18.558;2022-10-16T05:08:36;54.40;;;27.15;;
68806;SDS011;55800;54.272;18.558;2022-10-16T05:11:05;59.28;;;29.65;;
68806;SDS011;55800;54.272;18.558;2022-10-16T05:13:34;58.05;;;29.52;;
68806;SDS011;55800;54.272;18.558;2022-10-16T05:16:05;58.50;;;30.00;;
68806;SDS011;55800;54.272;18.558;2022-10-16T05:18:35;61.75;;;31.92;;
68806;SDS011;55800;54.272;18.558;2022-10-16T05:23:33;53.75;;;27.95;;
68806;SDS011;55800;54.272;18.558;2022-10-16T05:28:31;51.55;;;26.92;;
68806;SDS011;55800;54.272;18.558;2022-10-16T05:33:33;54.63;;;29.88;;
68806;SDS011;55800;54.272;18.558;2022-10-16T05:36:04;58.80;;;31.75;;
68806;SDS011;55800;54.272;18.558;2022-10-16T05:38:35;56.78;;;29.17;;
68806;SDS011;55800;54.272;18.558;2022-10-16T05:41:05;47.22;;;29.10;;
68806;SDS011;55800;54.272;18.558;2022-10-16T05:43:34;55.30;;;30.77;;
68806;SDS011;55800;54.272;18.558;2022-10-16T05:46:05;59.17;;;30.50;;
68806;SDS011;55800;54.272;18.558;2022-10-16T05:48:35;54.03;;;29.60;;
68806;SDS011;55800;54.272;18.558;2022-10-16T05:51:05;51.33;;;29.92;;
68806;SDS011;55800;54.272;18.558;2022-10-16T05:53:37;60.08;;;31.55;;
68806;SDS011;55800;54.272;18.558;2022-10-16T05:56:08;52.78;;;29.25;;
68806;SDS011;55800;54.272;18.558;2022-10-16T05:58:39;59.95;;;30.70;;
68806;SDS011;55800;54.272;18.558;2022-10-16T06:01:11;55.50;;;29.20;;
68806;SDS011;55800;54.272;18.558;2022-10-16T06:03:41;58.03;;;29.90;;
68806;SDS011;55800;54.272;18.558;2022-10-16T06:06:12;51.78;;;27.73;;
68806;SDS011;55800;54.272;18.558;2022-10-16T06:08:43;49.97;;;29.95;;
68806;SDS011;55800;54.272;18.558;2022-10-16T06:11:14;69.88;;;36.67;;
68806;SDS011;55800;54.272;18.558;2022-10-16T06:13:48;62.28;;;36.30;;
68806;SDS011;55800;54.272;18.558;2022-10-16T06:16:20;53.45;;;29.10;;
68806;SDS011;55800;54.272;18.558;2022-10-16T06:18:50;50.65;;;30.25;;
68806;SDS011;55800;54.272;18.558;2022-10-16T06:21:21;56.25;;;31.40;;
68806;SDS011;55800;54.272;18.558;2022-10-16T06:23:52;54.30;;;29.20;;
68806;SDS011;55800;54.272;18.558;2022-10-16T06:26:23;50.40;;;27.55;;
68806;SDS011;55800;54.272;18.558;2022-10-16T06:28:54;56.53;;;27.08;;
68806;SDS011;55800;54.272;18.558;2022-10-16T06:31:26;49.40;;;26.23;;
68806;SDS011;55800;54.272;18.558;2022-10-16T06:33:58;31.17;;;17.50;;
68806;SDS011;55800;54.272;18.558;2022-10-16T06:36:28;46.95;;;25.75;;
68806;SDS011;55800;54.272;18.558;2022-10-16T06:38:57;42.30;;;27.38;;
68806;SDS011;55800;54.272;18.558;2022-10-16T06:44:18;42.85;;;25.40;;
68806;SDS011;55800;54.272;18.558;2022-10-16T06:49:18;45.13;;;26.92;;
68806;SDS011;55800;54.272;18.558;2022-10-16T06:51:49;45.38;;;27.63;;
68806;SDS011;55800;54.272;18.558;2022-10-16T06:54:18;43.92;;;25.20;;
68806;SDS011;55800;54.272;18.558;2022-10-16T06:59:20;42.83;;;24.55;;
68806;SDS011;55800;54.272;18.558;2022-10-16T07:01:51;45.95;;;27.95;;
68806;SDS011;55800;54.272;18.558;2022-10-16T07:04:21;42.45;;;23.17;;
68806;SDS011;55800;54.272;18.558;2022-10-16T07:09:19;42.53;;;22.85;;
68806;SDS011;55800;54.272;18.558;2022-10-16T07:11:48;46.45;;;27.08;;
68806;SDS011;55800;54.272;18.558;2022-10-16T07:16:49;38.15;;;23.52;;
68806;SDS011;55800;54.272;18.558;2022-10-16T07:19:19;42.95;;;24.55;;
68806;SDS011;55800;54.272;18.558;2022-10-16T07:24:18;44.90;;;25.58;;
68806;SDS011;55800;54.272;18.558;2022-10-16T07:29:18;41.35;;;24.73;;
68806;SDS011;55800;54.272;18.558;2022-10-16T07:31:49;50.67;;;28.52;;
68806;SDS011;55800;54.272;18.558;2022-10-16T07:34:20;44.85;;;24.98;;
68806;SDS011;55800;54.272;18.558;2022-10-16T07:36:50;41.20;;;26.02;;
68806;SDS011;55800;54.272;18.558;2022-10-16T07:39:19;47.92;;;27.33;;
68806;SDS011;55800;54.272;18.558;2022-10-16T07:44:17;39.97;;;22.65;;
68806;SDS011;55800;54.272;18.558;2022-10-16T07:49:17;41.20;;;23.42;;
68806;SDS011;55800;54.272;18.558;2022-10-16T07:51:47;41.65;;;24.00;;
68806;SDS011;55800;54.272;18.558;2022-10-16T07:54:16;41.50;;;25.45;;
68806;SDS011;55800;54.272;18.558;2022-10-16T07:59:14;49.50;;;28.42;;
68806;SDS011;55800;54.272;18.558;2022-10-16T08:04:13;40.60;;;23.45;;
68806;SDS011;55800;54.272;18.558;2022-10-16T08:09:13;39.78;;;23.60;;
68806;SDS011;55800;54.272;18.558;2022-10-16T08:14:11;37.78;;;22.10;;
68806;SDS011;55800;54.272;18.558;2022-10-16T08:16:40;40.30;;;23.02;;
68806;SDS011;55800;54.272;18.558;2022-10-16T08:19:10;40.80;;;22.73;;
68806;SDS011;55800;54.272;18.558;2022-10-16T08:24:09;45.72;;;26.27;;
68806;SDS011;55800;54.272;18.558;2022-10-16T08:26:39;38.58;;;23.23;;
68806;SDS011;55800;54.272;18.558;2022-10-16T08:31:37;39.13;;;22.25;;
68806;SDS011;55800;54.272;18.558;2022-10-16T08:34:06;37.58;;;20.90;;
68806;SDS011;55800;54.272;18.558;2022-10-16T08:36:36;37.92;;;22.42;;
68806;SDS011;55800;54.272;18.558;2022-10-16T08:39:05;34.38;;;20.98;;
68806;SDS011;55800;54.272;18.558;2022-10-16T08:42:02;38.40;;;22.55;;
68806;SDS011;55800;54.272;18.558;2022-10-16T08:44:58;33.92;;;20.80;;
68806;SDS011;55800;54.272;18.558;2022-10-16T08:47:47;36.72;;;21.95;;
68806;SDS011;55800;54.272;18.558;2022-10-16T08:50:23;38.40;;;20.58;;
68806;SDS011;55800;54.272;18.558;2022-10-16T08:52:55;39.40;;;21.90;;
68806;SDS011;55800;54.272;18.558;2022-10-16T08:55:29;37.10;;;21.83;;
68806;SDS011;55800;54.272;18.558;2022-10-16T08:58:10;38.40;;;21.63;;
68806;SDS011;55800;54.272;18.558;2022-10-16T09:00:42;36.13;;;21.10;;
68806;SDS011;55800;54.272;18.558;2022-10-16T09:03:17;33.33;;;18.63;;
68806;SDS011;55800;54.272;18.558;2022-10-16T09:06:17;32.80;;;19.73;;
68806;SDS011;55800;54.272;18.558;2022-10-16T09:09:03;35.83;;;21.55;;
68806;SDS011;55800;54.272;18.558;2022-10-16T09:14:35;33.58;;;19.58;;
68806;SDS011;55800;54.272;18.558;2022-10-16T09:17:21;40.65;;;23.08;;
68806;SDS011;55800;54.272;18.558;2022-10-16T09:20:03;33.88;;;21.13;;
68806;SDS011;55800;54.272;18.558;2022-10-16T09:22:45;36.80;;;21.52;;
68806;SDS011;55800;54.272;18.558;2022-10-16T09:25:16;36.15;;;19.92;;
68806;SDS011;55800;54.272;18.558;2022-10-16T09:27:48;32.35;;;19.50;;
68806;SDS011;55800;54.272;18.558;2022-10-16T09:30:26;29.15;;;19.08;;
68806;SDS011;55800;54.272;18.558;2022-10-16T09:32:57;35.22;;;21.88;;
68806;SDS011;55800;54.272;18.558;2022-10-16T09:35:31;28.10;;;17.08;;
68806;SDS011;55800;54.272;18.558;2022-10-16T09:38:04;34.55;;;19.20;;
68806;SDS011;55800;54.272;18.558;2022-10-16T09:40:35;28.58;;;17.42;;
68806;SDS011;55800;54.272;18.558;2022-10-16T09:43:12;26.38;;;16.05;;
68806;SDS011;55800;54.272;18.558;2022-10-16T09:46:01;29.48;;;18.40;;
68806;SDS011;55800;54.272;18.558;2022-10-16T09:48:35;31.45;;;17.15;;
68806;SDS011;55800;54.272;18.558;2022-10-16T09:51:15;27.73;;;17.27;;
68806;SDS011;55800;54.272;18.558;2022-10-16T09:56:22;25.67;;;16.02;;
68806;SDS011;55800;54.272;18.558;2022-10-16T09:58:54;30.23;;;17.30;;
68806;SDS011;55800;54.272;18.558;2022-10-16T10:01:28;27.65;;;15.35;;
68806;SDS011;55800;54.272;18.558;2022-10-16T10:06:34;28.65;;;16.13;;
68806;SDS011;55800;54.272;18.558;2022-10-16T10:09:06;31.75;;;20.00;;
68806;SDS011;55800;54.272;18.558;2022-10-16T10:11:49;28.65;;;17.42;;
68806;SDS011;55800;54.272;18.558;2022-10-16T10:14:24;28.65;;;16.40;;
68806;SDS011;55800;54.272;18.558;2022-10-16T10:17:12;32.97;;;18.65;;
68806;SDS011;55800;54.272;18.558;2022-10-16T10:19:50;29.10;;;17.98;;
68806;SDS011;55800;54.272;18.558;2022-10-16T10:22:23;29.48;;;18.50;;
68806;SDS011;55800;54.272;18.558;2022-10-16T10:24:56;31.30;;;17.52;;
68806;SDS011;55800;54.272;18.558;2022-10-16T10:27:32;23.67;;;15.60;;
68806;SDS011;55800;54.272;18.558;2022-10-16T10:30:08;28.80;;;18.58;;
68806;SDS011;55800;54.272;18.558;2022-10-16T10:32:46;32.22;;;20.00;;
68806;SDS011;55800;54.272;18.558;2022-10-16T10:35:32;27.63;;;16.92;;
68806;SDS011;55800;54.272;18.558;2022-10-16T10:38:12;30.65;;;18.77;;
68806;SDS011;55800;54.272;18.558;2022-10-16T10:40:56;29.70;;;17.80;;
68806;SDS011;55800;54.272;18.558;2022-10-16T10:43:44;33.78;;;19.15;;
68806;SDS011;55800;54.272;18.558;2022-10-16T10:46:24;32.95;;;19.60;;
68806;SDS011;55800;54.272;18.558;2022-10-16T10:49:06;29.73;;;18.88;;
68806;SDS011;55800;54.272;18.558;2022-10-16T10:51:51;28.27;;;17.92;;
68806;SDS011;55800;54.272;18.558;2022-10-16T10:54:32;28.58;;;17.95;;
68806;SDS011;55800;54.272;18.558;2022-10-16T10:57:09;29.38;;;19.60;;
68806;SDS011;55800;54.272;18.558;2022-10-16T10:59:53;31.05;;;18.45;;
68806;SDS011;55800;54.272;18.558;2022-10-16T11:02:41;32.90;;;16.92;;
68806;SDS011;55800;54.272;18.558;2022-10-16T11:05:26;27.58;;;17.33;;
68806;SDS011;55800;54.272;18.558;2022-10-16T11:08:07;28.20;;;17.70;;
68806;SDS011;55800;54.272;18.558;2022-10-16T11:10:46;28.23;;;17.38;;
68806;SDS011;55800;54.272;18.558;2022-10-16T11:13:26;28.40;;;17.58;;
68806;SDS011;55800;54.272;18.558;2022-10-16T11:16:00;26.70;;;17.63;;
68806;SDS011;55800;54.272;18.558;2022-10-16T11:18:42;25.67;;;16.40;;
68806;SDS011;55800;54.272;18.558;2022-10-16T11:21:19;27.52;;;19.30;;
68806;SDS011;55800;54.272;18.558;2022-10-16T11:23:57;30.52;;;17.38;;
68806;SDS011;55800;54.272;18.558;2022-10-16T11:26:33;23.88;;;16.80;;
68806;SDS011;55800;54.272;18.558;2022-10-16T11:29:08;27.70;;;16.05;;
68806;SDS011;55800;54.272;18.558;2022-10-16T11:31:45;25.15;;;16.52;;
68806;SDS011;55800;54.272;18.558;2022-10-16T11:34:19;27.27;;;16.63;;
68806;SDS011;55800;54.272;18.558;2022-10-16T11:37:03;23.88;;;15.35;;
68806;SDS011;55800;54.272;18.558;2022-10-16T11:39:38;22.60;;;15.43;;
68806;SDS011;55800;54.272;18.558;2022-10-16T11:42:09;23.38;;;15.05;;
68806;SDS011;55800;54.272;18.558;2022-10-16T11:44:47;26.88;;;16.98;;
68806;SDS011;55800;54.272;18.558;2022-10-16T11:47:26;21.05;;;14.13;;
68806;SDS011;55800;54.272;18.558;2022-10-16T11:50:22;21.65;;;13.70;;
68806;SDS011;55800;54.272;18.558;2022-10-16T11:52:57;21.75;;;14.77;;
68806;SDS011;55800;54.272;18.558;2022-10-16T11:55:33;19.88;;;13.32;;
68806;SDS011;55800;54.272;18.558;2022-10-16T11:58:13;20.88;;;14.90;;
68806;SDS011;55800;54.272;18.558;2022-10-16T12:03:25;20.80;;;13.50;;
68806;SDS011;55800;54.272;18.558;2022-10-16T12:06:02;19.65;;;12.63;;
68806;SDS011;55800;54.272;18.558;2022-10-16T12:08:43;17.45;;;11.93;;
68806;SDS011;55800;54.272;18.558;2022-10-16T12:11:22;18.27;;;12.25;;
68806;SDS011;55800;54.272;18.558;2022-10-16T12:14:18;19.83;;;12.50;;
68806;SDS011;55800;54.272;18.558;2022-10-16T12:17:25;17.88;;;13.43;;
68806;SDS011;55800;54.272;18.558;2022-10-16T12:19:59;14.90;;;10.02;;
68806;SDS011;55800;54.272;18.558;2022-10-16T12:22:47;15.43;;;12.52;;
68806;SDS011;55800;54.272;18.558;2022-10-16T12:25:21;17.20;;;11.90;;
68806;SDS011;55800;54.272;18.558;2022-10-16T12:27:58;19.08;;;11.77;;
68806;SDS011;55800;54.272;18.558;2022-10-16T12:30:30;16.90;;;11.18;;
68806;SDS011;55800;54.272;18.558;2022-10-16T12:33:02;16.75;;;10.80;;
68806;SDS011;55800;54.272;18.558;2022-10-16T12:35:35;15.50;;;10.00;;
68806;SDS011;55800;54.272;18.558;2022-10-16T12:38:15;15.18;;;10.32;;
68806;SDS011;55800;54.272;18.558;2022-10-16T12:40:54;18.42;;;10.82;;
68806;SDS011;55800;54.272;18.558;2022-10-16T12:46:21;14.77;;;10.57;;
68806;SDS011;55800;54.272;18.558;2022-10-16T12:49:06;15.65;;;10.07;;
68806;SDS011;55800;54.272;18.558;2022-10-16T12:51:48;14.60;;;10.88;;
68806;SDS011;55800;54.272;18.558;2022-10-16T12:56:53;14.35;;;10.02;;
68806;SDS011;55800;54.272;18.558;2022-10-16T12:59:38;16.90;;;11.38;;
68806;SDS011;55800;54.272;18.558;2022-10-16T13:02:26;15.93;;;10.05;;
68806;SDS011;55800;54.272;18.558;2022-10-16T13:05:21;13.50;;;8.77;;
68806;SDS011;55800;54.272;18.558;2022-10-16T13:08:07;12.57;;;8.88;;
68806;SDS011;55800;54.272;18.558;2022-10-16T13:10:53;22.52;;;9.93;;
68806;SDS011;55800;54.272;18.558;2022-10-16T13:13:39;12.20;;;8.32;;
68806;SDS011;55800;54.272;18.558;2022-10-16T13:16:30;12.80;;;8.83;;
68806;SDS011;55800;54.272;18.558;2022-10-16T13:19:11;13.20;;;9.15;;
68806;SDS011;55800;54.272;18.558;2022-10-16T13:21:53;12.15;;;8.82;;
68806;SDS011;55800;54.272;18.558;2022-10-16T13:24:42;10.85;;;7.63;;
68806;SDS011;55800;54.272;18.558;2022-10-16T13:27:29;11.25;;;8.75;;
68806;SDS011;55800;54.272;18.558;2022-10-16T13:30:12;10.90;;;7.65;;
68806;SDS011;55800;54.272;18.558;2022-10-16T13:32:44;13.10;;;8.63;;
68806;SDS011;55800;54.272;18.558;2022-10-16T13:35:21;14.68;;;8.20;;
68806;SDS011;55800;54.272;18.558;2022-10-16T13:38:02;11.60;;;7.63;;
68806;SDS011;55800;54.272;18.558;2022-10-16T13:40:32;12.40;;;9.10;;
68806;SDS011;55800;54.272;18.558;2022-10-16T13:43:02;10.82;;;8.00;;
68806;SDS011;55800;54.272;18.558;2022-10-16T13:45:33;12.00;;;9.13;;
68806;SDS011;55800;54.272;18.558;2022-10-16T13:48:03;11.15;;;8.35;;
68806;SDS011;55800;54.272;18.558;2022-10-16T13:50:34;11.57;;;8.75;;
68806;SDS011;55800;54.272;18.558;2022-10-16T13:53:04;11.75;;;8.23;;
68806;SDS011;55800;54.272;18.558;2022-10-16T13:55:33;16.15;;;9.27;;
68806;SDS011;55800;54.272;18.558;2022-10-16T13:58:04;12.32;;;8.45;;
68806;SDS011;55800;54.272;18.558;2022-10-16T14:00:37;11.50;;;7.82;;
68806;SDS011;55800;54.272;18.558;2022-10-16T14:03:11;12.02;;;7.70;;
68806;SDS011;55800;54.272;18.558;2022-10-16T14:05:44;12.38;;;9.00;;
68806;SDS011;55800;54.272;18.558;2022-10-16T14:08:17;11.30;;;8.25;;
68806;SDS011;55800;54.272;18.558;2022-10-16T14:10:47;14.50;;;8.52;;
68806;SDS011;55800;54.272;18.558;2022-10-16T14:13:18;15.38;;;9.55;;
68806;SDS011;55800;54.272;18.558;2022-10-16T14:15:52;11.85;;;8.82;;
68806;SDS011;55800;54.272;18.558;2022-10-16T14:18:25;13.65;;;9.48;;
68806;SDS011;55800;54.272;18.558;2022-10-16T14:21:05;15.52;;;10.38;;
68806;SDS011;55800;54.272;18.558;2022-10-16T14:23:40;14.50;;;9.82;;
68806;SDS011;55800;54.272;18.558;2022-10-16T14:26:14;15.30;;;10.38;;
68806;SDS011;55800;54.272;18.558;2022-10-16T14:28:46;18.42;;;10.70;;
68806;SDS011;55800;54.272;18.558;2022-10-16T14:31:25;11.95;;;9.73;;
68806;SDS011;55800;54.272;18.558;2022-10-16T14:33:56;15.68;;;10.88;;
68806;SDS011;55800;54.272;18.558;2022-10-16T14:36:27;13.68;;;9.18;;
68806;SDS011;55800;54.272;18.558;2022-10-16T14:39:01;14.10;;;9.43;;
68806;SDS011;55800;54.272;18.558;2022-10-16T14:41:42;14.05;;;9.82;;
68806;SDS011;55800;54.272;18.558;2022-10-16T14:44:14;16.35;;;10.00;;
68806;SDS011;55800;54.272;18.558;2022-10-16T14:46:48;15.98;;;9.80;;
68806;SDS011;55800;54.272;18.558;2022-10-16T14:49:18;16.10;;;10.45;;
68806;SDS011;55800;54.272;18.558;2022-10-16T14:51:49;15.77;;;10.15;;
68806;SDS011;55800;54.272;18.558;2022-10-16T14:54:19;13.00;;;9.50;;
68806;SDS011;55800;54.272;18.558;2022-10-16T14:56:50;18.95;;;11.07;;
68806;SDS011;55800;54.272;18.558;2022-10-16T14:59:22;15.70;;;11.73;;
68806;SDS011;55800;54.272;18.558;2022-10-16T15:01:58;18.40;;;11.70;;
68806;SDS011;55800;54.272;18.558;2022-10-16T15:04:29;19.45;;;11.65;;
68806;SDS011;55800;54.272;18.558;2022-10-16T15:06:58;17.88;;;10.65;;
68806;SDS011;55800;54.272;18.558;2022-10-16T15:09:27;16.15;;;10.32;;
68806;SDS011;55800;54.272;18.558;2022-10-16T15:11:57;23.80;;;12.55;;
68806;SDS011;55800;54.272;18.558;2022-10-16T15:14:26;17.30;;;11.35;;
68806;SDS011;55800;54.272;18.558;2022-10-16T15:16:56;21.95;;;11.25;;
68806;SDS011;55800;54.272;18.558;2022-10-16T15:19:27;21.27;;;11.20;;
68806;SDS011;55800;54.272;18.558;2022-10-16T15:21:56;18.02;;;9.70;;
68806;SDS011;55800;54.272;18.558;2022-10-16T15:24:27;14.90;;;9.70;;
68806;SDS011;55800;54.272;18.558;2022-10-16T15:26:56;13.35;;;9.15;;
68806;SDS011;55800;54.272;18.558;2022-10-16T15:31:54;18.52;;;10.85;;
68806;SDS011;55800;54.272;18.558;2022-10-16T15:36:54;12.68;;;8.98;;
68806;SDS011;55800;54.272;18.558;2022-10-16T15:39:24;12.75;;;9.23;;
68806;SDS011;55800;54.272;18.558;2022-10-16T15:41:54;14.25;;;10.15;;
68806;SDS011;55800;54.272;18.558;2022-10-16T15:44:23;14.25;;;10.07;;
68806;SDS011;55800;54.272;18.558;2022-10-16T15:46:56;14.98;;;9.02;;
68806;SDS011;55800;54.272;18.558;2022-10-16T15:49:30;18.38;;;10.07;;
68806;SDS011;55800;54.272;18.558;2022-10-16T15:51:59;16.55;;;9.77;;
68806;SDS011;55800;54.272;18.558;2022-10-16T15:59:27;15.98;;;9.73;;
68806;SDS011;55800;54.272;18.558;2022-10-16T16:01:57;15.10;;;9.80;;
68806;SDS011;55800;54.272;18.558;2022-10-16T16:04:30;19.45;;;9.80;;
68806;SDS011;55800;54.272;18.558;2022-10-16T16:07:15;12.75;;;8.25;;
68806;SDS011;55800;54.272;18.558;2022-10-16T16:09:44;15.88;;;10.00;;
68806;SDS011;55800;54.272;18.558;2022-10-16T16:12:14;12.57;;;9.02;;
68806;SDS011;55800;54.272;18.558;2022-10-16T16:14:43;14.30;;;9.90;;
68806;SDS011;55800;54.272;18.558;2022-10-16T16:17:15;24.30;;;10.15;;
68806;SDS011;55800;54.272;18.558;2022-10-16T16:19:46;14.63;;;8.48;;
68806;SDS011;55800;54.272;18.558;2022-10-16T16:22:16;12.25;;;9.05;;
68806;SDS011;55800;54.272;18.558;2022-10-16T16:24:45;16.13;;;9.40;;
68806;SDS011;55800;54.272;18.558;2022-10-16T16:29:43;13.95;;;9.38;;
68806;SDS011;55800;54.272;18.558;2022-10-16T16:32:13;17.13;;;11.38;;
68806;SDS011;55800;54.272;18.558;2022-10-16T16:34:42;18.27;;;11.68;;
68806;SDS011;55800;54.272;18.558;2022-10-16T16:39:43;15.13;;;9.95;;
68806;SDS011;55800;54.272;18.558;2022-10-16T16:42:14;16.55;;;11.23;;